sensor_id;sensor_type;location;lat;lon;timestamp;pressure;altitude;pressure_sealevel;temperature;humidity
64889;BME280;51386;53.082;8.816;2023-02-28T00:01:12;103070.03;;;11.13;41.10
64889;BME280;51386;53.082;8.816;2023-02-28T00:03:39;103071.72;;;11.14;41.09
64889;BME280;51386;53.082;8.816;2023-02-28T00:06:08;103071.72;;;11.14;41.08
64889;BME280;51386;53.082;8.816;2023-02-28T00:08:38;103061.69;;;11.08;40.79
64889;BME280;51386;53.082;8.816;2023-02-28T00:11:08;103066.94;;;11.08;40.92
64889;BME280;51386;53.082;8.816;2023-02-28T00:13:40;103069.81;;;11.05;40.92
64889;BME280;51386;53.082;8.816;2023-02-28T00:16:10;103060.22;;;11.04;41.17
64889;BME280;51386;53.082;8.816;2023-02-28T00:18:38;103071.38;;;11.07;41.40
64889;BME280;51386;53.082;8.816;2023-02-28T00:21:05;103063.34;;;11.09;40.94
64889;BME280;51386;53.082;8.816;2023-02-28T00:23:33;103069.09;;;11.14;40.94
64889;BME280;51386;53.082;8.816;2023-02-28T00:26:01;103073.16;;;11.18;41.23
64889;BME280;51386;53.082;8.816;2023-02-28T00:28:29;103066.81;;;11.20;40.95
64889;BME280;51386;53.082;8.816;2023-02-28T00:30:56;103074.59;;;11.22;40.83
64889;BME280;51386;53.082;8.816;2023-02-28T00:33:24;103076.25;;;11.23;41.25
64889;BME280;51386;53.082;8.816;2023-02-28T00:35:51;103065.72;;;11.23;40.91
64889;BME280;51386;53.082;8.816;2023-02-28T00:38:18;103066.81;;;11.20;40.85
64889;BME280;51386;53.082;8.816;2023-02-28T00:40:45;103070.88;;;11.13;40.39
64889;BME280;51386;53.082;8.816;2023-02-28T00:43:13;103068.13;;;11.04;41.22
64889;BME280;51386;53.082;8.816;2023-02-28T00:45:40;103067.06;;;10.95;40.98
64889;BME280;51386;53.082;8.816;2023-02-28T00:48:07;103078.91;;;10.89;40.78
64889;BME280;51386;53.082;8.816;2023-02-28T00:50:34;103077.47;;;10.85;40.67
64889;BME280;51386;53.082;8.816;2023-02-28T00:53:01;103072.44;;;10.82;41.39
64889;BME280;51386;53.082;8.816;2023-02-28T00:55:28;103074.13;;;10.83;41.04
64889;BME280;51386;53.082;8.816;2023-02-28T00:57:55;103068.84;;;10.83;41.52
64889;BME280;51386;53.082;8.816;2023-02-28T01:00:23;103077.47;;;10.85;41.44
64889;BME280;51386;53.082;8.816;2023-02-28T01:02:50;103074.13;;;10.83;41.19
64889;BME280;51386;53.082;8.816;2023-02-28T01:05:17;103067.66;;;10.76;41.42
64889;BME280;51386;53.082;8.816;2023-02-28T01:07:44;103078.63;;;10.70;41.18
64889;BME280;51386;53.082;8.816;2023-02-28T01:10:11;103081.25;;;10.59;41.38
64889;BME280;51386;53.082;8.816;2023-02-28T01:12:38;103072.88;;;10.54;41.27
64889;BME280;51386;53.082;8.816;2023-02-28T01:15:06;103077.19;;;10.55;41.89
64889;BME280;51386;53.082;8.816;2023-02-28T01:17:36;103083.19;;;10.57;42.24
64889;BME280;51386;53.082;8.816;2023-02-28T01:20:04;103079.34;;;10.61;41.98
64889;BME280;51386;53.082;8.816;2023-02-28T01:22:31;103080.78;;;10.65;41.87
64889;BME280;51386;53.082;8.816;2023-02-28T01:24:57;103082.47;;;10.66;41.93
64889;BME280;51386;53.082;8.816;2023-02-28T01:27:24;103082.47;;;10.66;42.11
64889;BME280;51386;53.082;8.816;2023-02-28T01:29:53;103088.47;;;10.68;42.23
64889;BME280;51386;53.082;8.816;2023-02-28T01:32:20;103085.59;;;10.71;41.71
64889;BME280;51386;53.082;8.816;2023-02-28T01:34:48;103091.09;;;10.68;41.41
64889;BME280;51386;53.082;8.816;2023-02-28T01:37:15;103083.41;;;10.65;41.81
64889;BME280;51386;53.082;8.816;2023-02-28T01:39:42;103087.13;;;10.63;41.55
64889;BME280;51386;53.082;8.816;2023-02-28T01:42:09;103091.56;;;10.62;41.90
64889;BME280;51386;53.082;8.816;2023-02-28T01:45:01;103085.09;;;10.55;41.76
64889;BME280;51386;53.082;8.816;2023-02-28T01:47:34;103089.88;;;10.50;41.94
64889;BME280;51386;53.082;8.816;2023-02-28T01:50:10;103096.06;;;10.49;41.73
64889;BME280;51386;53.082;8.816;2023-02-28T01:52:40;103093.31;;;10.51;42.01
64889;BME280;51386;53.082;8.816;2023-02-28T01:55:10;103088.66;;;10.54;41.48
64889;BME280;51386;53.082;8.816;2023-02-28T01:57:43;103088.78;;;10.53;41.69
64889;BME280;51386;53.082;8.816;2023-02-28T02:00:15;103085.19;;;10.54;41.57
64889;BME280;51386;53.082;8.816;2023-02-28T02:02:47;103089.38;;;10.56;41.76
64889;BME280;51386;53.082;8.816;2023-02-28T02:05:21;103084.84;;;10.58;41.58
64889;BME280;51386;53.082;8.816;2023-02-28T02:07:52;103085.69;;;10.59;41.21
64889;BME280;51386;53.082;8.816;2023-02-28T02:10:29;103088.03;;;10.51;41.35
64889;BME280;51386;53.082;8.816;2023-02-28T02:13:14;103073.66;;;10.44;41.35
64889;BME280;51386;53.082;8.816;2023-02-28T02:15:58;103082.25;;;10.35;41.21
64889;BME280;51386;53.082;8.816;2023-02-28T02:18:37;103079.47;;;10.25;40.85
64889;BME280;51386;53.082;8.816;2023-02-28T02:22:03;103084.31;;;10.07;41.75
64889;BME280;51386;53.082;8.816;2023-02-28T02:24:53;103078.97;;;9.96;41.10
64889;BME280;51386;53.082;8.816;2023-02-28T02:27:48;103078.59;;;9.90;41.13
64889;BME280;51386;53.082;8.816;2023-02-28T02:30:53;103076.84;;;9.78;41.67
64889;BME280;51386;53.082;8.816;2023-02-28T02:34:00;103069.41;;;9.72;42.08
64889;BME280;51386;53.082;8.816;2023-02-28T02:36:34;103075.63;;;9.71;41.86
64889;BME280;51386;53.082;8.816;2023-02-28T02:39:08;103072.06;;;9.72;41.89
64889;BME280;51386;53.082;8.816;2023-02-28T02:41:46;103069.63;;;9.69;41.66
64889;BME280;51386;53.082;8.816;2023-02-28T02:44:20;103072.47;;;9.66;41.82
64889;BME280;51386;53.082;8.816;2023-02-28T02:46:53;103074.50;;;9.62;41.88
64889;BME280;51386;53.082;8.816;2023-02-28T02:49:28;103070.53;;;9.57;42.10
64889;BME280;51386;53.082;8.816;2023-02-28T02:52:03;103078.41;;;9.57;42.03
64889;BME280;51386;53.082;8.816;2023-02-28T02:54:36;103077.56;;;9.56;42.22
64889;BME280;51386;53.082;8.816;2023-02-28T02:57:07;103076.50;;;9.59;41.83
64889;BME280;51386;53.082;8.816;2023-02-28T02:59:36;103078.91;;;9.62;41.87
64889;BME280;51386;53.082;8.816;2023-02-28T03:02:08;103071.44;;;9.55;41.76
64889;BME280;51386;53.082;8.816;2023-02-28T03:04:43;103080.63;;;9.50;42.09
64889;BME280;51386;53.082;8.816;2023-02-28T03:07:12;103078.34;;;9.45;42.46
64889;BME280;51386;53.082;8.816;2023-02-28T03:09:39;103073.59;;;9.50;42.94
64889;BME280;51386;53.082;8.816;2023-02-28T03:12:11;103075.06;;;9.54;42.49
64889;BME280;51386;53.082;8.816;2023-02-28T03:14:56;103073.16;;;9.57;42.21
64889;BME280;51386;53.082;8.816;2023-02-28T03:17:58;103073.28;;;9.55;42.44
64889;BME280;51386;53.082;8.816;2023-02-28T03:20:38;103075.66;;;9.58;42.44
64889;BME280;51386;53.082;8.816;2023-02-28T03:23:17;103078.78;;;9.63;42.29
64889;BME280;51386;53.082;8.816;2023-02-28T03:25:56;103076.81;;;9.67;42.64
64889;BME280;51386;53.082;8.816;2023-02-28T03:28:37;103075.22;;;9.64;42.43
64889;BME280;51386;53.082;8.816;2023-02-28T03:31:16;103083.88;;;9.53;42.41
64889;BME280;51386;53.082;8.816;2023-02-28T03:33:51;103084.31;;;9.47;42.29
64889;BME280;51386;53.082;8.816;2023-02-28T03:36:26;103077.63;;;9.43;42.43
64889;BME280;51386;53.082;8.816;2023-02-28T03:38:59;103089.72;;;9.33;42.00
64889;BME280;51386;53.082;8.816;2023-02-28T03:41:36;103089.00;;;9.19;42.38
64889;BME280;51386;53.082;8.816;2023-02-28T03:44:11;103083.34;;;9.12;42.81
64889;BME280;51386;53.082;8.816;2023-02-28T03:46:48;103077.56;;;9.07;42.55
64889;BME280;51386;53.082;8.816;2023-02-28T03:49:22;103079.78;;;9.01;42.66
64889;BME280;51386;53.082;8.816;2023-02-28T03:51:56;103091.56;;;8.95;42.99
64889;BME280;51386;53.082;8.816;2023-02-28T03:54:31;103086.94;;;8.86;42.56
64889;BME280;51386;53.082;8.816;2023-02-28T03:57:06;103084.00;;;8.78;43.16
64889;BME280;51386;53.082;8.816;2023-02-28T03:59:42;103081.06;;;8.70;43.10
64889;BME280;51386;53.082;8.816;2023-02-28T04:02:10;103083.78;;;8.68;43.46
64889;BME280;51386;53.082;8.816;2023-02-28T04:04:37;103094.94;;;8.72;43.68
64889;BME280;51386;53.082;8.816;2023-02-28T04:07:08;103098.47;;;8.71;43.61
64889;BME280;51386;53.082;8.816;2023-02-28T04:09:35;103090.59;;;8.71;43.59
64889;BME280;51386;53.082;8.816;2023-02-28T04:12:03;103091.75;;;8.67;43.25
64889;BME280;51386;53.082;8.816;2023-02-28T04:14:30;103090.50;;;8.60;43.57
64889;BME280;51386;53.082;8.816;2023-02-28T04:16:57;103098.47;;;8.58;43.80
64889;BME280;51386;53.082;8.816;2023-02-28T04:19:24;103103.09;;;8.55;43.94
64889;BME280;51386;53.082;8.816;2023-02-28T04:21:52;103106.25;;;8.60;44.29
64889;BME280;51386;53.082;8.816;2023-02-28T04:24:23;103096.38;;;8.63;44.17
64889;BME280;51386;53.082;8.816;2023-02-28T04:26:54;103101.22;;;8.69;44.24
64889;BME280;51386;53.082;8.816;2023-02-28T04:29:24;103102.06;;;8.70;43.85
64889;BME280;51386;53.082;8.816;2023-02-28T04:31:52;103100.56;;;8.66;43.70
64889;BME280;51386;53.082;8.816;2023-02-28T04:34:21;103098.91;;;8.65;44.17
64889;BME280;51386;53.082;8.816;2023-02-28T04:36:48;103100.56;;;8.66;44.13
64889;BME280;51386;53.082;8.816;2023-02-28T04:39:40;103102.25;;;8.67;44.39
64889;BME280;51386;53.082;8.816;2023-02-28T04:42:08;103110.88;;;8.69;44.12
64889;BME280;51386;53.082;8.816;2023-02-28T04:44:35;103116.84;;;8.71;44.32
64889;BME280;51386;53.082;8.816;2023-02-28T04:47:02;103108.59;;;8.77;44.76
64889;BME280;51386;53.082;8.816;2023-02-28T04:49:29;103102.91;;;8.83;44.44
64889;BME280;51386;53.082;8.816;2023-02-28T04:51:56;103100.16;;;8.84;44.36
64889;BME280;51386;53.082;8.816;2023-02-28T04:54:23;103101.00;;;8.85;43.77
64889;BME280;51386;53.082;8.816;2023-02-28T04:56:51;103098.50;;;8.83;43.83
64889;BME280;51386;53.082;8.816;2023-02-28T04:59:18;103099.41;;;8.82;43.95
64889;BME280;51386;53.082;8.816;2023-02-28T05:01:47;103103.94;;;8.80;44.13
64889;BME280;51386;53.082;8.816;2023-02-28T05:04:15;103104.59;;;8.84;44.21
64889;BME280;51386;53.082;8.816;2023-02-28T05:06:42;103105.53;;;8.83;43.94
64889;BME280;51386;53.082;8.816;2023-02-28T05:09:09;103104.69;;;8.82;43.97
64889;BME280;51386;53.082;8.816;2023-02-28T05:11:38;103104.78;;;8.81;43.82
64889;BME280;51386;53.082;8.816;2023-02-28T05:14:11;103109.06;;;8.82;43.86
64889;BME280;51386;53.082;8.816;2023-02-28T05:16:38;103104.59;;;8.84;44.36
64889;BME280;51386;53.082;8.816;2023-02-28T05:19:06;103096.91;;;8.81;44.13
64889;BME280;51386;53.082;8.816;2023-02-28T05:21:35;103096.38;;;8.76;44.01
64889;BME280;51386;53.082;8.816;2023-02-28T05:24:06;103100.16;;;8.72;44.30
64889;BME280;51386;53.082;8.816;2023-02-28T05:26:35;103098.69;;;8.68;44.21
64889;BME280;51386;53.082;8.816;2023-02-28T05:29:02;103105.19;;;8.62;44.45
64889;BME280;51386;53.082;8.816;2023-02-28T05:31:31;103102.88;;;8.58;44.68
64889;BME280;51386;53.082;8.816;2023-02-28T05:33:59;103110.44;;;8.50;44.82
64889;BME280;51386;53.082;8.816;2023-02-28T05:36:26;103105.59;;;8.44;44.76
64889;BME280;51386;53.082;8.816;2023-02-28T05:38:53;103111.25;;;8.38;44.82
64889;BME280;51386;53.082;8.816;2023-02-28T05:41:21;103109.78;;;8.34;45.24
64889;BME280;51386;53.082;8.816;2023-02-28T05:43:48;103110.69;;;8.33;45.69
64889;BME280;51386;53.082;8.816;2023-02-28T05:46:16;103106.50;;;8.30;45.54
64889;BME280;51386;53.082;8.816;2023-02-28T05:48:47;103118.75;;;8.30;45.59
64889;BME280;51386;53.082;8.816;2023-02-28T05:51:15;103115.41;;;8.28;45.46
64889;BME280;51386;53.082;8.816;2023-02-28T05:53:43;103123.47;;;8.25;45.24
64889;BME280;51386;53.082;8.816;2023-02-28T05:56:10;103118.53;;;8.20;45.41
64889;BME280;51386;53.082;8.816;2023-02-28T05:58:36;103120.69;;;8.13;45.76
64889;BME280;51386;53.082;8.816;2023-02-28T06:01:22;103122.03;;;8.06;46.21
64889;BME280;51386;53.082;8.816;2023-02-28T06:03:51;103123.06;;;8.04;45.57
64889;BME280;51386;53.082;8.816;2023-02-28T06:06:19;103129.56;;;7.98;45.61
64889;BME280;51386;53.082;8.816;2023-02-28T06:08:46;103134.44;;;7.90;45.35
64889;BME280;51386;53.082;8.816;2023-02-28T06:11:13;103137.84;;;7.78;45.82
64889;BME280;51386;53.082;8.816;2023-02-28T06:13:40;103140.50;;;7.64;46.53
64889;BME280;51386;53.082;8.816;2023-02-28T06:16:10;103147.91;;;7.43;46.74
64889;BME280;51386;53.082;8.816;2023-02-28T06:18:37;103149.97;;;7.24;47.60
64889;BME280;51386;53.082;8.816;2023-02-28T06:21:06;103146.59;;;7.08;47.77
64889;BME280;51386;53.082;8.816;2023-02-28T06:23:33;103148.38;;;6.94;48.25
64889;BME280;51386;53.082;8.816;2023-02-28T06:26:00;103149.72;;;6.85;47.44
64889;BME280;51386;53.082;8.816;2023-02-28T06:28:27;103145.53;;;6.82;48.94
64889;BME280;51386;53.082;8.816;2023-02-28T06:30:54;103155.81;;;6.86;48.37
64889;BME280;51386;53.082;8.816;2023-02-28T06:33:21;103152.06;;;6.90;49.05
64889;BME280;51386;53.082;8.816;2023-02-28T06:35:50;103151.91;;;6.93;48.99
64889;BME280;51386;53.082;8.816;2023-02-28T06:38:20;103157.13;;;6.93;48.55
64889;BME280;51386;53.082;8.816;2023-02-28T06:40:53;103151.78;;;6.94;48.50
64889;BME280;51386;53.082;8.816;2023-02-28T06:43:20;103153.59;;;6.94;49.12
64889;BME280;51386;53.082;8.816;2023-02-28T06:45:48;103156.97;;;6.96;48.23
64889;BME280;51386;53.082;8.816;2023-02-28T06:48:15;103165.38;;;7.01;48.89
64889;BME280;51386;53.082;8.816;2023-02-28T06:50:42;103163.63;;;7.01;48.66
64889;BME280;51386;53.082;8.816;2023-02-28T06:53:09;103160.16;;;7.01;48.41
64889;BME280;51386;53.082;8.816;2023-02-28T06:55:39;103173.03;;;7.04;49.09
64889;BME280;51386;53.082;8.816;2023-02-28T06:58:06;103159.59;;;7.10;48.81
64889;BME280;51386;53.082;8.816;2023-02-28T07:00:41;103168.94;;;7.14;48.40
64889;BME280;51386;53.082;8.816;2023-02-28T07:03:09;103169.41;;;7.20;48.59
64889;BME280;51386;53.082;8.816;2023-02-28T07:05:36;103163.72;;;7.28;48.87
64889;BME280;51386;53.082;8.816;2023-02-28T07:08:05;103174.75;;;7.33;48.24
64889;BME280;51386;53.082;8.816;2023-02-28T07:10:38;103169.91;;;7.41;48.04
64889;BME280;51386;53.082;8.816;2023-02-28T07:13:07;103176.34;;;7.49;48.77
64889;BME280;51386;53.082;8.816;2023-02-28T07:15:35;103179.41;;;7.56;48.49
64889;BME280;51386;53.082;8.816;2023-02-28T07:18:07;103182.59;;;7.61;47.98
64889;BME280;51386;53.082;8.816;2023-02-28T07:20:34;103190.00;;;7.69;48.05
64889;BME280;51386;53.082;8.816;2023-02-28T07:23:00;103190.38;;;7.77;47.84
64889;BME280;51386;53.082;8.816;2023-02-28T07:25:28;103187.81;;;7.89;47.87
64889;BME280;51386;53.082;8.816;2023-02-28T07:27:57;103186.25;;;8.13;47.71
64889;BME280;51386;53.082;8.816;2023-02-28T07:30:25;103182.22;;;8.49;47.39
64889;BME280;51386;53.082;8.816;2023-02-28T07:32:52;103187.75;;;8.71;46.83
64889;BME280;51386;53.082;8.816;2023-02-28T07:35:21;103176.22;;;8.86;46.28
64889;BME280;51386;53.082;8.816;2023-02-28T07:37:48;103177.38;;;9.07;45.86
64889;BME280;51386;53.082;8.816;2023-02-28T07:40:16;103186.00;;;9.34;44.84
64889;BME280;51386;53.082;8.816;2023-02-28T07:42:44;103190.50;;;9.58;43.75
64889;BME280;51386;53.082;8.816;2023-02-28T07:45:13;103190.03;;;9.89;43.37
64889;BME280;51386;53.082;8.816;2023-02-28T07:47:42;103194.34;;;10.26;43.30
64889;BME280;51386;53.082;8.816;2023-02-28T07:50:13;103195.22;;;10.61;41.97
64889;BME280;51386;53.082;8.816;2023-02-28T07:52:41;103183.34;;;10.91;41.45
64889;BME280;51386;53.082;8.816;2023-02-28T07:55:09;103184.13;;;11.15;41.42
64889;BME280;51386;53.082;8.816;2023-02-28T07:57:37;103189.59;;;11.34;40.96
64889;BME280;51386;53.082;8.816;2023-02-28T08:00:07;103188.78;;;11.55;40.53
64889;BME280;51386;53.082;8.816;2023-02-28T08:02:37;103192.75;;;11.72;40.46
64889;BME280;51386;53.082;8.816;2023-02-28T08:05:06;103183.16;;;11.82;39.55
64889;BME280;51386;53.082;8.816;2023-02-28T08:07:33;103183.63;;;11.87;39.59
64889;BME280;51386;53.082;8.816;2023-02-28T08:10:00;103182.22;;;11.83;38.57
64889;BME280;51386;53.082;8.816;2023-02-28T08:12:28;103190.00;;;11.85;38.75
64889;BME280;51386;53.082;8.816;2023-02-28T08:14:54;103191.53;;;12.09;38.92
64889;BME280;51386;53.082;8.816;2023-02-28T08:17:21;103188.31;;;12.38;37.85
64889;BME280;51386;53.082;8.816;2023-02-28T08:19:50;103200.38;;;12.72;38.45
64889;BME280;51386;53.082;8.816;2023-02-28T08:22:17;103194.19;;;13.14;38.41
64889;BME280;51386;53.082;8.816;2023-02-28T08:24:45;103189.78;;;13.54;36.98
64889;BME280;51386;53.082;8.816;2023-02-28T08:27:12;103188.38;;;13.90;36.23
64889;BME280;51386;53.082;8.816;2023-02-28T08:29:39;103198.72;;;14.22;35.77
64889;BME280;51386;53.082;8.816;2023-02-28T08:32:07;103193.38;;;14.52;35.00
64889;BME280;51386;53.082;8.816;2023-02-28T08:34:46;103190.97;;;14.87;34.00
64889;BME280;51386;53.082;8.816;2023-02-28T08:37:15;103191.75;;;14.98;33.14
64889;BME280;51386;53.082;8.816;2023-02-28T08:39:42;103195.94;;;14.90;32.71
64889;BME280;51386;53.082;8.816;2023-02-28T08:42:09;103182.59;;;14.82;32.77
64889;BME280;51386;53.082;8.816;2023-02-28T08:44:37;103183.72;;;14.70;32.89
64889;BME280;51386;53.082;8.816;2023-02-28T08:47:06;103188.19;;;14.41;31.96
64889;BME280;51386;53.082;8.816;2023-02-28T08:49:33;103189.72;;;14.34;32.91
64889;BME280;51386;53.082;8.816;2023-02-28T08:52:00;103183.16;;;14.38;32.78
64889;BME280;51386;53.082;8.816;2023-02-28T08:54:28;103191.69;;;14.61;32.52
64889;BME280;51386;53.082;8.816;2023-02-28T08:56:58;103197.50;;;14.83;31.32
64889;BME280;51386;53.082;8.816;2023-02-28T08:59:25;103197.47;;;15.03;31.78
64889;BME280;51386;53.082;8.816;2023-02-28T09:01:52;103194.69;;;15.41;31.37
64889;BME280;51386;53.082;8.816;2023-02-28T09:04:20;103188.09;;;16.26;30.73
64889;BME280;51386;53.082;8.816;2023-02-28T09:06:50;103191.28;;;17.34;28.94
64889;BME280;51386;53.082;8.816;2023-02-28T09:09:17;103188.78;;;18.24;28.10
64889;BME280;51386;53.082;8.816;2023-02-28T09:11:45;103199.63;;;19.20;26.87
64889;BME280;51386;53.082;8.816;2023-02-28T09:14:13;103189.25;;;20.10;25.93
64889;BME280;51386;53.082;8.816;2023-02-28T09:16:40;103195.50;;;21.08;24.62
64889;BME280;51386;53.082;8.816;2023-02-28T09:19:10;103194.34;;;21.90;23.53
64889;BME280;51386;53.082;8.816;2023-02-28T09:21:37;103186.69;;;22.65;22.22
64889;BME280;51386;53.082;8.816;2023-02-28T09:24:05;103187.50;;;23.28;21.55
64889;BME280;51386;53.082;8.816;2023-02-28T09:26:32;103194.22;;;23.79;20.93
64889;BME280;51386;53.082;8.816;2023-02-28T09:29:10;103187.53;;;24.36;20.04
64889;BME280;51386;53.082;8.816;2023-02-28T09:31:38;103182.56;;;24.72;19.65
64889;BME280;51386;53.082;8.816;2023-02-28T09:34:05;103187.72;;;25.06;19.17
64889;BME280;51386;53.082;8.816;2023-02-28T09:36:32;103182.66;;;25.49;17.98
64889;BME280;51386;53.082;8.816;2023-02-28T09:39:10;103183.00;;;26.03;17.35
64889;BME280;51386;53.082;8.816;2023-02-28T09:41:39;103184.38;;;26.50;17.46
64889;BME280;51386;53.082;8.816;2023-02-28T09:44:24;103187.91;;;26.75;16.89
64889;BME280;51386;53.082;8.816;2023-02-28T09:46:58;103184.78;;;26.78;15.80
64889;BME280;51386;53.082;8.816;2023-02-28T09:49:37;103186.22;;;26.99;16.69
64889;BME280;51386;53.082;8.816;2023-02-28T09:52:11;103198.19;;;27.10;16.16
64889;BME280;51386;53.082;8.816;2023-02-28T09:54:40;103192.78;;;27.28;15.33
64889;BME280;51386;53.082;8.816;2023-02-28T09:57:17;103198.13;;;27.71;15.69
64889;BME280;51386;53.082;8.816;2023-02-28T09:59:59;103200.66;;;28.13;15.83
64889;BME280;51386;53.082;8.816;2023-02-28T10:02:54;103198.69;;;28.21;14.91
64889;BME280;51386;53.082;8.816;2023-02-28T10:05:29;103193.97;;;28.28;14.30
64889;BME280;51386;53.082;8.816;2023-02-28T10:08:08;103199.34;;;28.04;14.81
64889;BME280;51386;53.082;8.816;2023-02-28T10:10:40;103192.88;;;28.17;14.45
64889;BME280;51386;53.082;8.816;2023-02-28T10:13:20;103194.81;;;28.28;14.57
64889;BME280;51386;53.082;8.816;2023-02-28T10:15:55;103194.81;;;28.28;14.68
64889;BME280;51386;53.082;8.816;2023-02-28T10:18:31;103195.88;;;28.27;14.30
64889;BME280;51386;53.082;8.816;2023-02-28T10:21:02;103196.44;;;28.17;13.93
64889;BME280;51386;53.082;8.816;2023-02-28T10:23:35;103201.72;;;28.12;14.20
64889;BME280;51386;53.082;8.816;2023-02-28T10:26:12;103198.50;;;28.04;14.42
64889;BME280;51386;53.082;8.816;2023-02-28T10:28:40;103199.28;;;27.93;14.43
64889;BME280;51386;53.082;8.816;2023-02-28T10:31:14;103208.81;;;27.95;14.37
64889;BME280;51386;53.082;8.816;2023-02-28T10:33:44;103207.94;;;28.43;14.11
64889;BME280;51386;53.082;8.816;2023-02-28T10:36:16;103212.88;;;28.46;13.34
64889;BME280;51386;53.082;8.816;2023-02-28T10:38:46;103207.75;;;28.14;14.10
64889;BME280;51386;53.082;8.816;2023-02-28T10:41:16;103207.22;;;28.06;13.80
64889;BME280;51386;53.082;8.816;2023-02-28T10:43:44;103202.19;;;27.91;14.55
64889;BME280;51386;53.082;8.816;2023-02-28T10:46:18;103189.19;;;27.52;14.50
64889;BME280;51386;53.082;8.816;2023-02-28T10:49:03;103190.34;;;27.02;14.54
64889;BME280;51386;53.082;8.816;2023-02-28T10:51:38;103188.09;;;26.49;14.69
64889;BME280;51386;53.082;8.816;2023-02-28T10:54:16;103186.44;;;25.86;15.57
64889;BME280;51386;53.082;8.816;2023-02-28T10:56:45;103176.25;;;25.30;15.98
64889;BME280;51386;53.082;8.816;2023-02-28T10:59:28;103182.59;;;24.78;15.91
64889;BME280;51386;53.082;8.816;2023-02-28T11:01:57;103188.97;;;24.38;16.68
64889;BME280;51386;53.082;8.816;2023-02-28T11:04:36;103191.19;;;24.08;16.73
64889;BME280;51386;53.082;8.816;2023-02-28T11:07:14;103194.00;;;23.87;17.07
64889;BME280;51386;53.082;8.816;2023-02-28T11:09:48;103191.91;;;23.70;16.99
64889;BME280;51386;53.082;8.816;2023-02-28T11:12:24;103184.44;;;23.65;17.50
64889;BME280;51386;53.082;8.816;2023-02-28T11:14:58;103178.19;;;23.58;17.40
64889;BME280;51386;53.082;8.816;2023-02-28T11:17:30;103181.84;;;23.44;17.34
64889;BME280;51386;53.082;8.816;2023-02-28T11:20:02;103178.09;;;23.38;17.40
64889;BME280;51386;53.082;8.816;2023-02-28T11:22:35;103173.38;;;23.13;17.55
64889;BME280;51386;53.082;8.816;2023-02-28T11:25:16;103176.91;;;22.85;17.92
64889;BME280;51386;53.082;8.816;2023-02-28T11:27:48;103174.34;;;22.77;17.84
64889;BME280;51386;53.082;8.816;2023-02-28T11:30:37;103172.31;;;22.58;18.00
64889;BME280;51386;53.082;8.816;2023-02-28T11:33:28;103177.13;;;22.20;18.29
64889;BME280;51386;53.082;8.816;2023-02-28T11:36:00;103170.38;;;22.03;18.75
64889;BME280;51386;53.082;8.816;2023-02-28T11:38:28;103172.16;;;21.96;18.69
64889;BME280;51386;53.082;8.816;2023-02-28T11:41:19;103166.72;;;22.11;18.34
64889;BME280;51386;53.082;8.816;2023-02-28T11:44:04;103162.38;;;22.31;18.53
64889;BME280;51386;53.082;8.816;2023-02-28T11:46:41;103160.06;;;22.49;18.29
64889;BME280;51386;53.082;8.816;2023-02-28T11:49:31;103161.56;;;22.58;18.00
64889;BME280;51386;53.082;8.816;2023-02-28T11:52:04;103158.47;;;22.55;18.31
64889;BME280;51386;53.082;8.816;2023-02-28T11:55:04;103159.75;;;22.16;18.15
64889;BME280;51386;53.082;8.816;2023-02-28T11:58:02;103155.53;;;21.86;18.71
64889;BME280;51386;53.082;8.816;2023-02-28T12:00:49;103157.22;;;21.73;18.19
64889;BME280;51386;53.082;8.816;2023-02-28T12:03:29;103153.50;;;21.59;18.75
64889;BME280;51386;53.082;8.816;2023-02-28T12:06:17;103150.75;;;21.52;18.93
64889;BME280;51386;53.082;8.816;2023-02-28T12:08:55;103141.91;;;21.37;19.08
64889;BME280;51386;53.082;8.816;2023-02-28T12:11:45;103145.34;;;21.17;19.78
64889;BME280;51386;53.082;8.816;2023-02-28T12:14:42;103128.00;;;21.13;19.69
64889;BME280;51386;53.082;8.816;2023-02-28T12:17:42;103131.84;;;21.39;19.68
64889;BME280;51386;53.082;8.816;2023-02-28T12:20:25;103126.28;;;21.55;19.08
64889;BME280;51386;53.082;8.816;2023-02-28T12:23:21;103125.78;;;21.67;19.05
64889;BME280;51386;53.082;8.816;2023-02-28T12:26:06;103116.00;;;21.44;19.15
64889;BME280;51386;53.082;8.816;2023-02-28T12:28:42;103116.88;;;21.01;19.56
64889;BME280;51386;53.082;8.816;2023-02-28T12:31:17;103112.31;;;20.58;19.81
64889;BME280;51386;53.082;8.816;2023-02-28T12:33:51;103109.50;;;20.37;19.64
64889;BME280;51386;53.082;8.816;2023-02-28T12:36:21;103107.22;;;20.48;19.68
64889;BME280;51386;53.082;8.816;2023-02-28T12:38:57;103099.47;;;20.53;19.55
64889;BME280;51386;53.082;8.816;2023-02-28T12:41:34;103103.69;;;20.48;19.88
64889;BME280;51386;53.082;8.816;2023-02-28T12:44:09;103088.38;;;20.42;20.07
64889;BME280;51386;53.082;8.816;2023-02-28T12:46:42;103089.75;;;20.38;19.78
64889;BME280;51386;53.082;8.816;2023-02-28T12:49:16;103097.69;;;20.46;19.73
64889;BME280;51386;53.082;8.816;2023-02-28T12:51:46;103089.38;;;20.41;20.05
64889;BME280;51386;53.082;8.816;2023-02-28T12:54:25;103096.75;;;20.39;20.18
64889;BME280;51386;53.082;8.816;2023-02-28T12:57:02;103083.28;;;20.47;20.04
64889;BME280;51386;53.082;8.816;2023-02-28T12:59:38;103073.44;;;20.47;19.62
64889;BME280;51386;53.082;8.816;2023-02-28T13:02:44;103080.72;;;20.39;19.65
64889;BME280;51386;53.082;8.816;2023-02-28T13:05:31;103076.06;;;20.33;19.20
64889;BME280;51386;53.082;8.816;2023-02-28T13:08:31;103073.47;;;20.02;18.67
64889;BME280;51386;53.082;8.816;2023-02-28T13:11:07;103072.44;;;19.80;18.70
64889;BME280;51386;53.082;8.816;2023-02-28T13:13:47;103062.78;;;19.79;19.16
64889;BME280;51386;53.082;8.816;2023-02-28T13:16:14;103069.19;;;19.93;19.31
64889;BME280;51386;53.082;8.816;2023-02-28T13:18:45;103069.31;;;20.22;19.54
64889;BME280;51386;53.082;8.816;2023-02-28T13:21:24;103070.59;;;20.78;19.25
64889;BME280;51386;53.082;8.816;2023-02-28T13:24:00;103066.09;;;21.22;18.28